Time;durP1;ratioP1;P1;durP2;ratioP2;P2;SDS_P1;SDS_P2;PMS_P1;PMS_P2;Temp;Humidity;BMP_temperature;BMP_pressure;BME280_temperature;BME280_humidity;BME280_pressure;Samples;Min_cycle;Max_cycle;Signal;HPM_P1;HPM_P2
2022/05/01 00:02:15;;;;;;;28.10;12.68;;;;;;;7.16;39.19;99199.66;5078385;28;20439;-76
2022/05/01 00:04:41;;;;;;;19.05;11.63;;;;;;;7.11;39.49;99199.97;5061286;28;20051;-76
2022/05/01 00:07:10;;;;;;;20.08;12.10;;;;;;;6.99;40.11;99183.03;5096413;28;20090;-75
2022/05/01 00:09:37;;;;;;;30.38;12.10;;;;;;;7.02;39.98;99200.59;5096231;28;20048;-76
2022/05/01 00:12:03;;;;;;;30.05;11.27;;;;;;;6.94;40.74;99206.41;5077904;28;20062;-77
2022/05/01 00:14:29;;;;;;;23.60;8.63;;;;;;;6.67;43.55;99202.94;5077913;28;20487;-76
2022/05/01 00:16:55;;;;;;;19.00;8.20;;;;;;;6.59;42.27;99202.63;5077833;28;20109;-76
2022/05/01 00:19:21;;;;;;;11.85;6.70;;;;;;;6.45;42.08;99193.72;5061351;28;20394;-75
2022/05/01 00:21:47;;;;;;;13.38;5.43;;;;;;;6.34;42.31;99190.94;5096178;28;20135;-75
2022/05/01 00:24:14;;;;;;;13.60;4.90;;;;;;;6.31;41.74;99193.78;5077914;28;20494;-75
2022/05/01 00:26:39;;;;;;;11.63;5.07;;;;;;;6.27;41.36;99200.25;5077828;28;20036;-76
2022/05/01 00:29:06;;;;;;;18.13;5.57;;;;;;;6.22;41.46;99191.72;5095669;28;20097;-76
2022/05/01 00:31:33;;;;;;;9.73;4.97;;;;;;;6.14;41.70;99188.72;5077554;28;20035;-76
2022/05/01 00:36:43;;;;;;;9.15;5.10;;;;;;;5.96;42.19;99188.94;5077914;28;20105;-75
2022/05/01 00:39:09;;;;;;;10.95;5.40;;;;;;;5.86;42.27;99185.13;5044092;28;20421;-76
2022/05/01 00:41:36;;;;;;;14.55;5.28;;;;;;;5.79;42.99;99178.50;5077334;28;20546;-76
2022/05/01 00:44:14;;;;;;;14.80;5.55;;;;;;;5.70;42.64;99168.47;5077199;28;20487;-75
2022/05/01 00:46:45;;;;;;;11.45;5.05;;;;;;;5.70;42.99;99171.13;5044363;28;20075;-75
2022/05/01 00:49:16;;;;;;;14.35;5.05;;;;;;;5.58;42.71;99168.31;5060469;28;20093;-76
2022/05/01 00:51:51;;;;;;;10.80;5.45;;;;;;;5.64;42.85;99182.97;5077241;28;20058;-76
2022/05/01 00:54:20;;;;;;;15.27;5.03;;;;;;;5.66;42.71;99177.59;5043880;28;20044;-75
2022/05/01 00:56:49;;;;;;;22.30;6.95;;;;;;;5.67;42.47;99180.13;5060541;28;20067;-75
2022/05/01 00:59:15;;;;;;;12.48;4.00;;;;;;;5.66;42.38;99174.94;5077062;28;20083;-76
2022/05/01 01:01:44;;;;;;;7.82;4.05;;;;;;;5.68;42.11;99170.38;5095063;28;20039;-75
2022/05/01 01:04:10;;;;;;;13.30;4.43;;;;;;;5.69;41.82;99153.53;5060152;28;20055;-75
2022/05/01 01:06:38;;;;;;;11.25;4.32;;;;;;;5.83;41.83;99169.44;5060187;28;20073;-75
2022/05/01 01:09:04;;;;;;;11.70;4.70;;;;;;;5.84;41.68;99156.06;5077279;28;20067;-76
2022/05/01 01:11:30;;;;;;;16.55;4.25;;;;;;;5.92;41.33;99163.56;5060532;28;20052;-75
2022/05/01 01:13:58;;;;;;;14.23;4.93;;;;;;;5.99;41.45;99161.38;5077092;28;20130;-76
2022/05/01 01:16:25;;;;;;;8.20;4.47;;;;;;;6.05;41.33;99169.75;5060035;28;20051;-76
2022/05/01 01:18:52;;;;;;;7.00;4.20;;;;;;;6.05;41.68;99164.44;5076917;28;20499;-75
2022/05/01 01:21:18;;;;;;;8.38;4.15;;;;;;;6.15;41.34;99179.81;5043312;28;20036;-77
2022/05/01 01:23:45;;;;;;;7.53;4.38;;;;;;;6.11;41.76;99179.16;5076490;28;20044;-75
2022/05/01 01:26:13;;;;;;;8.73;4.18;;;;;;;6.07;41.63;99151.97;5076923;28;20044;-75
2022/05/01 01:28:41;;;;;;;9.18;4.45;;;;;;;6.21;41.16;99169.66;5042984;28;20044;-75
2022/05/01 01:33:58;;;;;;;5.55;4.05;;;;;;;6.44;40.55;99154.03;5076717;28;20047;-76
2022/05/01 01:36:28;;;;;;;9.60;4.18;;;;;;;6.60;40.54;99153.84;5043446;28;20506;-76
2022/05/01 01:38:55;;;;;;;13.73;4.60;;;;;;;6.62;40.92;99149.25;5059923;28;20414;-77
2022/05/01 01:41:24;;;;;;;17.33;5.38;;;;;;;6.67;40.96;99144.50;5094294;28;20047;-77
2022/05/01 01:43:51;;;;;;;10.82;4.45;;;;;;;6.77;41.07;99161.53;5059351;28;20143;-76
2022/05/01 01:46:17;;;;;;;12.70;5.30;;;;;;;6.82;41.15;99162.06;5094340;28;20040;-76
2022/05/01 01:48:46;;;;;;;15.02;5.68;;;;;;;6.87;41.18;99156.44;5059423;28;20040;-76
2022/05/01 01:51:12;;;;;;;14.75;5.55;;;;;;;6.92;41.25;99155.19;5042610;28;20036;-76
2022/05/01 01:53:39;;;;;;;19.30;7.35;;;;;;;6.98;41.73;99153.91;5059072;28;20067;-76
2022/05/01 01:56:07;;;;;;;20.25;6.35;;;;;;;7.09;41.56;99161.16;5093916;28;20130;-75
2022/05/01 01:58:33;;;;;;;22.27;7.07;;;;;;;7.17;41.85;99153.50;5093882;28;20044;-76
2022/05/01 02:00:59;;;;;;;23.98;8.32;;;;;;;7.24;41.70;99160.09;5058399;28;20757;-76
2022/05/01 02:03:26;;;;;;;19.88;7.57;;;;;;;7.29;41.87;99165.94;5058712;28;20090;-76
2022/05/01 02:05:52;;;;;;;24.88;8.18;;;;;;;7.17;42.75;99174.75;5059059;28;20042;-76
2022/05/01 02:08:19;;;;;;;28.63;7.32;;;;;;;6.94;43.83;99171.88;5059006;28;20044;-77
2022/05/01 02:10:46;;;;;;;24.40;6.72;;;;;;;6.84;43.87;99164.63;5093626;28;20040;-76
2022/05/01 02:13:13;;;;;;;25.92;5.63;;;;;;;6.86;42.96;99170.69;5075771;28;20039;-77
2022/05/01 02:15:39;;;;;;;11.50;5.53;;;;;;;6.77;43.56;99177.47;5093578;28;20040;-77
2022/05/01 02:18:06;;;;;;;13.25;4.15;;;;;;;6.65;42.77;99183.59;5093610;28;20063;-76
2022/05/01 02:23:19;;;;;;;12.55;4.45;;;;;;;6.33;43.18;99162.69;5058922;28;20039;-77
2022/05/01 02:25:45;;;;;;;11.93;4.80;;;;;;;6.05;44.88;99168.91;5058746;28;20101;-76
2022/05/01 02:28:11;;;;;;;17.65;4.07;;;;;;;6.05;44.12;99169.75;5075400;28;20101;-77
2022/05/01 02:30:38;;;;;;;20.35;4.68;;;;;;;6.04;44.07;99181.34;5093486;28;20483;-76
2022/05/01 02:33:06;;;;;;;10.98;4.22;;;;;;;6.02;44.05;99193.00;5041950;28;20120;-76
2022/05/01 02:35:33;;;;;;;7.22;3.88;;;;;;;5.90;44.22;99186.63;5075292;28;20119;-76
2022/05/01 02:37:59;;;;;;;10.23;4.15;;;;;;;5.76;44.63;99184.03;5058543;28;20406;-76
2022/05/01 02:40:26;;;;;;;7.38;3.47;;;;;;;5.80;44.15;99185.53;5092937;28;20047;-76
2022/05/01 02:42:52;;;;;;;9.38;3.40;;;;;;;5.85;43.87;99186.94;5059074;28;20558;-76
2022/05/01 02:45:18;;;;;;;16.55;3.97;;;;;;;5.90;43.54;99178.66;5075424;28;20122;-76
2022/05/01 02:47:44;;;;;;;5.68;3.28;;;;;;;6.00;43.89;99193.09;5093292;28;20433;-76
2022/05/01 02:50:10;;;;;;;6.90;3.17;;;;;;;5.93;43.08;99198.88;5075205;28;20584;-77
2022/05/01 02:52:36;;;;;;;6.75;3.70;;;;;;;5.85;43.64;99191.38;5075117;28;20098;-76
2022/05/01 02:55:02;;;;;;;8.07;3.45;;;;;;;5.96;43.67;99198.69;5058180;28;20031;-77
2022/05/01 02:57:29;;;;;;;7.90;3.50;;;;;;;6.16;43.74;99202.72;5058786;28;20046;-75
2022/05/01 02:59:55;;;;;;;10.93;4.35;;;;;;;6.57;43.34;99194.72;5075261;28;20040;-76
2022/05/01 03:02:21;;;;;;;5.50;4.13;;;;;;;7.10;42.64;99184.09;5074524;28;20502;-76
2022/05/01 03:04:47;;;;;;;5.22;3.40;;;;;;;7.46;41.92;99181.56;5080090;28;20119;-76
2022/05/01 03:07:15;;;;;;;7.78;3.83;;;;;;;7.73;41.20;99181.44;5071183;28;20562;-77
2022/05/01 03:09:42;;;;;;;6.15;3.28;;;;;;;8.07;40.40;99178.19;5078763;28;20047;-77
2022/05/01 03:12:08;;;;;;;7.53;4.07;;;;;;;8.37;39.73;99151.13;5114280;28;20047;-77
2022/05/01 03:14:34;;;;;;;11.98;4.40;;;;;;;8.52;38.83;99166.84;5102362;28;20062;-76
2022/05/01 03:17:00;;;;;;;6.50;3.70;;;;;;;8.56;38.07;99167.47;5085345;28;20502;-85
2022/05/01 03:22:10;;;;;;;9.55;4.50;;;;;;;8.65;38.09;99160.59;5120700;28;20043;-82
2022/05/01 03:24:38;;;;;;;14.35;3.80;;;;;;;8.78;37.82;99166.72;5103467;28;20363;-81
2022/05/01 03:27:05;;;;;;;12.88;3.80;;;;;;;8.93;39.78;99167.38;5103008;28;20502;-81
2022/05/01 03:29:31;;;;;;;23.27;4.65;;;;;;;9.07;37.74;99171.66;5085268;28;20525;-88
2022/05/01 03:31:59;;;;;;;54.60;7.65;;;;;;;9.25;37.71;99175.53;5103552;28;20044;-90
2022/05/01 03:34:26;;;;;;;13.48;4.15;;;;;;;9.56;37.73;99175.84;5101263;28;20043;-80
2022/05/01 03:36:53;;;;;;;9.98;4.25;;;;;;;9.85;37.06;99174.38;5120295;28;20180;-78
2022/05/01 03:39:20;;;;;;;21.45;4.72;;;;;;;10.19;36.72;99172.53;5101656;28;20086;-78
2022/05/01 03:41:47;;;;;;;11.10;3.78;;;;;;;10.55;36.18;99175.00;5101483;28;20121;-77
2022/05/01 03:44:13;;;;;;;14.98;4.40;;;;;;;10.80;35.64;99163.97;5101751;28;20089;-82
2022/05/01 03:46:39;;;;;;;15.23;4.30;;;;;;;11.06;34.84;99166.28;5101579;28;20096;-79
2022/05/01 03:49:06;;;;;;;13.90;4.18;;;;;;;11.15;34.37;99176.19;5100889;28;20662;-81
2022/05/01 03:51:33;;;;;;;8.40;4.00;;;;;;;11.18;34.58;99167.91;5101386;28;20043;-77
2022/05/01 03:54:03;;;;;;;12.73;3.97;;;;;;;11.29;34.05;99183.91;5084920;28;20130;-79
2022/05/01 03:56:30;;;;;;;8.23;4.00;;;;;;;11.47;33.60;99175.25;5100655;28;20035;-77
2022/05/01 03:58:57;;;;;;;8.75;4.60;;;;;;;11.50;33.57;99162.44;5084348;28;20046;-77
2022/05/01 04:01:25;;;;;;;7.97;3.53;;;;;;;11.78;33.35;99190.38;5083999;28;20502;-80
2022/05/01 04:03:51;;;;;;;10.38;3.90;;;;;;;11.52;32.96;99173.03;5081301;28;20046;-77
2022/05/01 04:06:17;;;;;;;9.25;3.65;;;;;;;11.76;33.30;99186.97;5091712;28;20059;-77
2022/05/01 04:08:43;;;;;;;10.35;4.38;;;;;;;11.90;33.12;99189.31;5084077;28;20047;-75
2022/05/01 04:11:10;;;;;;;7.38;3.95;;;;;;;12.01;33.21;99174.13;5084016;28;20073;-78
2022/05/01 04:13:37;;;;;;;10.35;4.00;;;;;;;11.96;33.24;99181.72;5083994;28;20039;-77
2022/05/01 04:16:03;;;;;;;10.23;3.80;;;;;;;12.00;33.49;99183.13;5097468;28;20035;-77
2022/05/01 04:18:31;;;;;;;7.35;4.38;;;;;;;12.03;34.12;99185.53;5074106;28;20093;-78
2022/05/01 04:21:00;;;;;;;7.18;3.78;;;;;;;12.24;33.87;99180.97;5109731;28;20370;-80
2022/05/01 04:23:26;;;;;;;11.07;3.88;;;;;;;12.24;33.65;99167.56;5093544;28;20039;-79
2022/05/01 04:25:52;;;;;;;9.77;3.92;;;;;;;12.19;33.49;99161.78;5101779;28;20071;-78
2022/05/01 04:28:18;;;;;;;14.25;4.00;;;;;;;12.26;34.04;99156.69;5090192;28;20089;-77
2022/05/01 04:30:46;;;;;;;15.25;4.30;;;;;;;12.45;33.92;99174.66;5088743;28;20453;-78
2022/05/01 04:33:14;;;;;;;8.65;3.65;;;;;;;12.67;33.66;99179.75;5094520;28;20050;-80
2022/05/01 04:35:48;;;;;;;23.75;4.72;;;;;;;12.84;33.33;99171.00;5088710;28;20071;-77
2022/05/01 04:38:23;;;;;;;9.00;4.07;;;;;;;13.04;33.12;99179.06;5089278;28;20047;-76
2022/05/01 04:40:52;;;;;;;22.77;4.13;;;;;;;12.91;33.16;99178.50;5068980;28;20129;-79
2022/05/01 04:43:21;;;;;;;10.23;4.20;;;;;;;12.68;33.43;99177.94;5077077;28;20071;-79
2022/05/01 04:45:50;;;;;;;12.38;4.00;;;;;;;12.63;33.59;99176.50;5077143;28;20048;-77
2022/05/01 04:48:17;;;;;;;12.57;4.45;;;;;;;12.40;33.76;99170.56;5076286;28;20419;-77
2022/05/01 04:50:45;;;;;;;10.40;4.68;;;;;;;12.69;33.60;99180.47;5076908;28;20071;-77
2022/05/01 04:53:13;;;;;;;8.07;4.32;;;;;;;12.89;33.32;99171.44;5076796;28;20526;-78
2022/05/01 04:55:41;;;;;;;7.68;4.15;;;;;;;13.32;32.91;99175.53;5060408;28;20513;-76
2022/05/01 04:58:07;;;;;;;8.50;4.00;;;;;;;13.58;32.46;99178.44;5077125;28;20492;-82
2022/05/01 05:00:35;;;;;;;10.63;3.90;;;;;;;13.64;32.28;99176.16;5099367;28;20051;-77
2022/05/01 05:03:02;;;;;;;21.63;4.18;;;;;;;13.93;31.49;99176.03;5093030;28;20175;-80
2022/05/01 05:05:31;;;;;;;15.90;4.93;;;;;;;14.01;31.19;99181.50;5078827;28;20036;-77
2022/05/01 05:10:47;;;;;;;11.63;4.35;;;;;;;14.45;31.11;99165.56;5076080;28;20494;-77
2022/05/01 05:13:14;;;;;;;10.13;3.83;;;;;;;14.71;31.01;99180.00;5094661;28;20466;-79
2022/05/01 05:15:40;;;;;;;9.60;3.67;;;;;;;14.84;30.70;99176.06;5076333;28;20040;-78
2022/05/01 05:18:06;;;;;;;7.55;3.80;;;;;;;15.06;29.71;99172.91;5058853;28;20112;-76
2022/05/01 05:20:32;;;;;;;14.27;3.83;;;;;;;14.94;29.20;99164.22;5093903;28;20040;-81
2022/05/01 05:22:58;;;;;;;6.60;3.50;;;;;;;15.06;29.34;99162.97;5059749;28;20044;-77
2022/05/01 05:25:24;;;;;;;11.18;3.75;;;;;;;15.20;28.48;99161.59;5059819;28;20446;-81
2022/05/01 05:27:50;;;;;;;10.43;4.13;;;;;;;14.97;28.20;99160.34;5076119;28;20518;-78
2022/05/01 05:30:16;;;;;;;8.20;3.60;;;;;;;14.78;28.23;99166.75;5059111;28;20126;-78
2022/05/01 05:32:42;;;;;;;9.45;4.03;;;;;;;14.62;28.33;99172.81;5058111;28;20190;-76
2022/05/01 05:35:08;;;;;;;14.43;4.18;;;;;;;14.65;28.47;99163.63;5075424;28;20040;-76
2022/05/01 05:37:34;;;;;;;7.90;3.67;;;;;;;14.74;27.30;99160.88;5059015;28;20050;-76
2022/05/01 05:40:00;;;;;;;11.80;3.80;;;;;;;14.75;26.92;99151.78;5093508;28;20044;-76
2022/05/01 05:42:26;;;;;;;8.43;4.05;;;;;;;14.79;26.67;99163.94;5078873;28;20071;-76
2022/05/01 05:44:52;;;;;;;9.52;3.80;;;;;;;14.89;27.06;99162.97;5079087;28;20495;-77
2022/05/01 05:47:21;;;;;;;6.20;3.67;;;;;;;14.81;26.29;99172.66;5079429;28;20498;-77
2022/05/01 05:49:47;;;;;;;5.47;2.95;;;;;;;14.32;26.47;99177.50;5103850;28;20050;-75
2022/05/01 05:52:13;;;;;;;7.65;3.00;;;;;;;14.59;26.73;99162.38;5092610;28;20048;-79
2022/05/01 05:54:39;;;;;;;7.10;3.00;;;;;;;14.85;27.00;99167.00;5058742;28;20123;-80
2022/05/01 05:57:05;;;;;;;4.82;2.70;;;;;;;15.02;28.10;99174.22;5096066;28;20071;-79
2022/05/01 05:59:31;;;;;;;9.43;2.60;;;;;;;14.98;27.47;99170.16;5078701;28;20131;-80
2022/05/01 06:01:57;;;;;;;6.03;2.60;;;;;;;15.04;27.41;99172.19;5095267;28;20038;-78
2022/05/01 06:04:22;;;;;;;4.50;2.63;;;;;;;14.92;28.04;99174.28;5094498;28;20042;-77
2022/05/01 06:06:48;;;;;;;3.85;1.90;;;;;;;14.77;28.14;99176.66;5062605;28;20048;-81
2022/05/01 06:09:14;;;;;;;6.47;2.10;;;;;;;14.65;28.31;99175.22;5062517;28;20047;-78
2022/05/01 06:11:40;;;;;;;6.25;2.15;;;;;;;14.71;27.80;99169.25;5061309;28;20504;-78
2022/05/01 06:14:06;;;;;;;8.13;2.90;;;;;;;14.75;27.67;99161.69;5044946;28;20057;-77
2022/05/01 06:16:32;;;;;;;2.50;2.13;;;;;;;15.09;27.67;99164.53;5050330;28;20595;-77
2022/05/01 06:19:02;;;;;;;7.63;2.30;;;;;;;14.88;27.82;99162.16;5050090;28;20068;-76
2022/05/01 06:21:28;;;;;;;6.15;2.00;;;;;;;14.88;27.70;99161.31;5017919;28;20091;-76
2022/05/01 06:23:55;;;;;;;9.88;2.03;;;;;;;14.95;27.58;99167.75;5034277;28;20076;-76
2022/05/01 06:26:21;;;;;;;6.78;2.72;;;;;;;15.21;27.68;99151.66;5017220;28;20052;-79
2022/05/01 06:28:47;;;;;;;9.27;2.58;;;;;;;15.38;26.67;99163.38;5057008;28;20080;-77
2022/05/01 06:31:16;;;;;;;9.10;2.50;;;;;;;15.18;27.13;99160.88;5043436;28;20044;-77
2022/05/01 06:33:45;;;;;;;9.32;2.40;;;;;;;15.33;27.50;99154.94;5043486;28;20500;-76
2022/05/01 06:36:13;;;;;;;7.68;2.28;;;;;;;15.32;27.61;99148.72;5044682;28;20056;-76
2022/05/01 06:38:39;;;;;;;7.70;2.33;;;;;;;15.42;27.67;99162.06;5059932;28;20075;-76
2022/05/01 06:41:05;;;;;;;11.35;2.50;;;;;;;15.29;27.49;99160.63;5027608;28;20102;-77
2022/05/01 06:43:32;;;;;;;6.05;2.45;;;;;;;15.38;28.14;99166.06;5024168;28;20082;-76
2022/05/01 06:45:57;;;;;;;4.15;2.42;;;;;;;15.20;28.36;99164.28;5026536;28;20039;-76
2022/05/01 06:48:23;;;;;;;3.67;2.58;;;;;;;15.32;28.66;99174.78;5031766;28;20035;-77
2022/05/01 06:50:50;;;;;;;6.60;2.80;;;;;;;15.13;28.93;99176.66;5058173;28;20040;-76
2022/05/01 06:53:16;;;;;;;3.42;2.63;;;;;;;14.96;29.21;99161.38;5101531;28;20089;-77
2022/05/01 06:55:42;;;;;;;4.05;2.28;;;;;;;14.81;29.68;99172.66;5084801;28;20426;-75
2022/05/01 06:58:09;;;;;;;4.82;2.55;;;;;;;14.63;29.89;99163.78;5076867;28;20103;-77
2022/05/01 07:00:35;;;;;;;6.57;2.50;;;;;;;14.92;30.14;99173.44;5083957;28;20106;-79
2022/05/01 07:03:01;;;;;;;2.38;2.17;;;;;;;14.91;29.48;99161.00;5096041;28;20402;-76
2022/05/01 07:05:27;;;;;;;7.40;2.60;;;;;;;14.79;30.19;99169.31;5055485;28;20093;-76
2022/05/01 07:07:54;;;;;;;4.53;2.50;;;;;;;14.93;30.42;99170.63;5103756;28;20071;-76
2022/05/01 07:10:22;;;;;;;8.40;2.47;;;;;;;15.20;29.91;99166.13;5076949;28;20039;-75
2022/05/01 07:12:48;;;;;;;7.78;2.50;;;;;;;15.29;29.53;99171.41;5102405;28;20458;-76
2022/05/01 07:15:14;;;;;;;10.27;2.63;;;;;;;15.25;29.72;99147.63;5085252;28;20040;-76
2022/05/01 07:17:41;;;;;;;8.43;2.67;;;;;;;15.37;29.97;99162.53;5089526;28;20078;-76
2022/05/01 07:20:09;;;;;;;8.77;2.63;;;;;;;15.23;29.82;99165.78;5096387;28;20040;-76
2022/05/01 07:22:35;;;;;;;4.85;2.60;;;;;;;15.24;30.19;99162.97;5099125;28;20055;-76
2022/05/01 07:25:02;;;;;;;7.68;2.85;;;;;;;15.49;29.62;99160.41;5069371;28;20092;-76
2022/05/01 07:27:30;;;;;;;5.63;2.60;;;;;;;15.19;30.15;99167.94;5067207;28;20058;-76
2022/05/01 07:29:56;;;;;;;4.95;2.40;;;;;;;15.60;30.11;99173.63;5088866;28;20039;-76
2022/05/01 07:32:22;;;;;;;10.38;2.67;;;;;;;16.03;29.55;99174.56;5082705;28;20517;-76
2022/05/01 07:34:48;;;;;;;5.97;2.78;;;;;;;16.15;28.91;99172.44;5082956;28;20124;-76
2022/05/01 07:37:14;;;;;;;3.42;2.40;;;;;;;16.22;28.93;99179.72;5103361;28;20131;-76
2022/05/01 07:39:40;;;;;;;6.18;2.40;;;;;;;16.34;28.37;99176.72;5057581;28;20098;-75
2022/05/01 07:42:07;;;;;;;5.47;2.50;;;;;;;15.65;29.46;99176.75;5083433;28;20044;-77
2022/05/01 07:44:33;;;;;;;3.55;2.58;;;;;;;15.17;29.47;99159.19;5092160;28;20066;-76
2022/05/01 07:46:59;;;;;;;4.47;2.67;;;;;;;15.60;29.46;99162.84;5074069;28;20036;-76
2022/05/01 07:49:26;;;;;;;4.05;2.63;;;;;;;15.59;30.66;99165.72;5092215;28;20040;-75
2022/05/01 07:51:53;;;;;;;8.88;2.50;;;;;;;15.62;30.40;99171.63;5074399;28;20063;-82
2022/05/01 07:54:19;;;;;;;5.15;2.38;;;;;;;16.05;30.17;99156.38;5044770;28;20078;-79
2022/05/01 07:56:46;;;;;;;5.10;2.67;;;;;;;15.64;30.73;99169.59;5077710;28;20039;-82
2022/05/01 07:59:12;;;;;;;6.22;3.03;;;;;;;15.55;31.31;99157.09;5078382;28;20036;-81
2022/05/01 08:01:38;;;;;;;9.23;2.97;;;;;;;15.74;31.34;99150.66;5065133;28;20134;-78
2022/05/01 08:06:50;;;;;;;4.13;2.70;;;;;;;16.18;34.48;99158.63;5082159;28;20067;-83
2022/05/01 08:09:16;;;;;;;9.02;2.35;;;;;;;15.57;31.69;99163.19;5099435;28;20042;-84
2022/05/01 08:11:42;;;;;;;3.22;2.25;;;;;;;15.91;33.43;99154.28;5098695;28;20047;-81
2022/05/01 08:14:10;;;;;;;5.68;2.78;;;;;;;16.70;30.52;99155.72;5098519;28;20039;-78
2022/05/01 08:16:36;;;;;;;9.63;2.55;;;;;;;16.75;30.30;99154.25;5081396;28;20051;-77
2022/05/01 08:21:47;;;;;;;4.60;2.28;;;;;;;15.57;30.87;99165.88;5083921;28;20042;-80
2022/05/01 08:24:15;;;;;;;9.00;2.80;;;;;;;15.45;31.20;99161.75;5098324;28;20036;-85
2022/05/01 08:26:42;;;;;;;3.42;2.40;;;;;;;15.48;31.17;99164.13;5116189;28;20077;-78
2022/05/01 08:29:08;;;;;;;3.70;2.20;;;;;;;15.25;30.90;99155.72;5116073;28;20051;-77
2022/05/01 08:31:34;;;;;;;3.38;2.10;;;;;;;14.90;32.77;99160.16;5080710;28;20047;-80
2022/05/01 08:34:00;;;;;;;3.85;2.40;;;;;;;14.38;33.50;99169.88;5080831;28;20177;-78
2022/05/01 08:36:28;;;;;;;3.38;2.30;;;;;;;14.28;34.00;99170.75;5110768;28;20089;-80
2022/05/01 08:38:53;;;;;;;7.25;2.88;;;;;;;14.03;34.56;99166.09;5058367;28;20046;-80
2022/05/01 08:41:19;;;;;;;3.50;2.40;;;;;;;14.25;34.84;99171.03;5099981;28;20039;-81
2022/05/01 08:43:45;;;;;;;5.60;2.30;;;;;;;14.22;34.67;99155.25;5080505;28;20553;-78
2022/05/01 08:46:31;;;;;;;9.27;2.60;;;;;;;14.02;35.30;99161.69;5115584;28;20047;-79
2022/05/01 08:49:05;;;;;;;3.78;2.25;;;;;;;13.83;36.08;99174.22;5080794;28;20047;-79
2022/05/01 08:51:36;;;;;;;2.90;2.22;;;;;;;13.94;36.18;99175.03;5080678;28;20568;-78
2022/05/01 08:54:05;;;;;;;3.67;2.38;;;;;;;14.21;35.87;99183.09;5063159;28;20052;-79
2022/05/01 08:56:36;;;;;;;3.95;2.58;;;;;;;14.14;35.80;99173.97;5113532;28;20040;-79
2022/05/01 08:59:05;;;;;;;5.25;2.45;;;;;;;14.44;35.83;99180.00;5063356;28;20036;-76
2022/05/01 09:01:33;;;;;;;13.13;2.47;;;;;;;14.25;35.52;99176.41;5063549;28;20050;-80
2022/05/01 09:04:00;;;;;;;2.40;2.20;;;;;;;13.95;35.94;99169.50;5080248;28;20070;-80
2022/05/01 09:06:27;;;;;;;4.40;2.50;;;;;;;14.23;36.05;99183.81;5079785;28;20039;-80
2022/05/01 09:08:53;;;;;;;6.78;2.28;;;;;;;13.98;36.21;99174.59;5061390;28;20051;-78
2022/05/01 09:14:05;;;;;;;4.25;2.35;;;;;;;14.51;34.92;99186.50;5095075;28;20074;-79
2022/05/01 09:16:36;;;;;;;4.32;2.50;;;;;;;14.30;35.73;99168.78;5094695;28;20067;-79
2022/05/01 09:19:03;;;;;;;4.15;2.55;;;;;;;14.42;35.52;99177.47;5077643;28;20048;-79
2022/05/01 09:21:50;;;;;;;7.22;2.75;;;;;;;14.71;35.43;99174.63;5076908;28;20082;-79
2022/05/01 09:24:27;;;;;;;7.18;2.70;;;;;;;14.72;35.11;99183.53;5093055;28;20090;-78
2022/05/01 09:26:54;;;;;;;3.17;2.35;;;;;;;14.84;35.78;99182.28;5042756;28;20075;-81
2022/05/01 09:29:22;;;;;;;4.28;2.63;;;;;;;14.93;35.87;99169.75;5076192;28;20083;-78
2022/05/01 09:31:50;;;;;;;3.28;2.13;;;;;;;15.02;34.86;99163.44;5076168;28;20131;-80
2022/05/01 09:34:24;;;;;;;5.30;2.38;;;;;;;15.05;35.48;99180.13;5042844;28;20032;-81
2022/05/01 09:36:51;;;;;;;5.78;2.00;;;;;;;15.17;34.31;99193.34;5070920;28;20132;-79
2022/05/01 09:39:19;;;;;;;4.07;1.92;;;;;;;15.07;34.06;99180.81;5059500;28;20502;-83
2022/05/01 09:41:45;;;;;;;3.47;2.80;;;;;;;15.32;35.20;99175.63;5069499;28;20406;-82
2022/05/01 09:44:13;;;;;;;4.68;2.50;;;;;;;15.81;33.30;99172.44;5096497;28;20494;-81
2022/05/01 09:46:38;;;;;;;6.45;2.83;;;;;;;15.88;31.84;99198.59;5080449;28;20490;-76
2022/05/01 09:49:09;;;;;;;7.55;2.92;;;;;;;15.57;32.25;99175.78;5095807;28;20180;-76
2022/05/01 09:51:46;;;;;;;8.50;2.90;;;;;;;16.22;31.47;99179.72;5079129;28;20047;-78
2022/05/01 09:54:23;;;;;;;5.65;2.28;;;;;;;15.74;31.39;99186.53;5115500;28;20039;-78
2022/05/01 09:56:50;;;;;;;6.68;2.53;;;;;;;14.89;32.55;99187.22;5080330;28;20402;-79
2022/05/01 09:59:20;;;;;;;7.30;2.78;;;;;;;14.37;33.07;99189.66;5113660;28;20043;-76
2022/05/01 10:01:58;;;;;;;;;;;;;;;13.87;33.84;99188.22;5062390;28;20127;-79
2022/05/01 10:04:25;;;;;;;4.05;2.72;;;;;;;13.80;33.69;99177.22;5095551;28;19923;-78
2022/05/01 10:06:54;;;;;;;4.45;2.33;;;;;;;13.78;33.74;99167.63;5076390;28;20163;-78
2022/05/01 10:09:24;;;;;;;6.15;2.63;;;;;;;14.07;33.64;99175.56;5087814;28;20082;-80
2022/05/01 10:11:57;;;;;;;7.10;2.92;;;;;;;14.24;33.07;99169.34;5114558;28;20047;-77
2022/05/01 10:14:25;;;;;;;4.30;2.63;;;;;;;13.72;33.34;99158.28;5096386;28;20043;-78
2022/05/01 10:16:54;;;;;;;3.92;2.72;;;;;;;13.61;33.92;99158.47;5095604;28;20134;-76
2022/05/01 10:19:23;;;;;;;3.40;2.50;;;;;;;13.61;33.64;99150.41;5095948;28;20501;-78
2022/05/01 10:21:59;;;;;;;7.47;3.72;;;;;;;13.79;33.76;99148.66;5095361;28;20051;-78
2022/05/01 10:24:26;;;;;;;6.68;2.72;;;;;;;14.41;32.77;99150.75;5079661;28;20392;-77
2022/05/01 10:27:01;;;;;;;6.93;2.90;;;;;;;14.74;32.59;99146.53;5095952;28;20489;-77
2022/05/01 10:32:20;;;;;;;3.47;2.88;;;;;;;15.06;31.36;99165.66;5078602;28;20043;-79
2022/05/01 10:32:58;;;;;;;7.50;2.70;;;;;;;14.88;31.85;99156.75;5095301;28;20100;-77
2022/05/01 10:35:45;;;;;;;7.68;2.80;;;;;;;14.58;31.16;99149.91;5055346;28;20040;-77
2022/05/01 10:38:29;;;;;;;4.60;3.08;;;;;;;14.59;31.67;99143.53;5061857;28;20043;-78
2022/05/01 10:41:00;;;;;;;3.85;2.83;;;;;;;14.70;31.03;99137.09;5062434;28;20089;-78
2022/05/01 10:43:36;;;;;;;5.22;2.30;;;;;;;14.77;30.65;99138.16;5091915;28;20080;-78
2022/05/01 10:46:20;;;;;;;5.97;2.38;;;;;;;15.01;30.61;99142.94;5092646;28;20442;-77
2022/05/01 10:48:47;;;;;;;5.25;2.00;;;;;;;14.92;29.42;99141.16;5058312;28;20556;-77
2022/05/01 10:51:36;;;;;;;5.00;2.90;;;;;;;13.76;31.41;99145.41;5041624;28;20506;-77
2022/05/01 10:54:17;;;;;;;4.10;2.88;;;;;;;13.54;31.77;99135.88;5058172;28;20051;-77
2022/05/01 10:56:45;;;;;;;5.03;2.75;;;;;;;13.39;31.64;99140.91;5059001;28;20105;-77
2022/05/01 10:59:29;;;;;;;4.05;2.88;;;;;;;13.55;31.43;99130.38;5075387;28;20150;-78
2022/05/01 11:02:06;;;;;;;3.13;2.40;;;;;;;14.04;31.59;99124.78;5057871;28;20573;-77
2022/05/01 11:04:38;;;;;;;9.63;3.80;;;;;;;15.06;30.51;99127.16;5058553;28;20089;-78
2022/05/01 11:07:05;;;;;;;11.57;3.40;;;;;;;16.00;29.26;99104.78;5058853;28;20052;-77
2022/05/01 11:09:36;;;;;;;6.07;4.18;;;;;;;15.94;29.24;99127.00;5058257;28;20507;-78
2022/05/01 11:12:06;;;;;;;6.32;3.60;;;;;;;16.27;29.29;99118.00;5058165;28;20501;-78
2022/05/01 11:15:06;;;;;;;5.03;3.72;;;;;;;16.19;28.82;99103.69;5087264;28;20043;-77
2022/05/01 11:17:42;;;;;;;6.45;3.50;;;;;;;15.61;28.77;99126.84;5046534;28;20044;-77
2022/05/01 11:20:14;;;;;;;8.10;4.13;;;;;;;15.48;29.61;99123.72;5058168;28;20040;-78
2022/05/01 11:22:45;;;;;;;10.73;3.42;;;;;;;14.93;30.32;99132.94;5057871;28;20044;-77
2022/05/01 11:25:17;;;;;;;6.70;3.35;;;;;;;14.55;31.29;99117.94;5070687;28;20044;-78
2022/05/01 11:27:50;;;;;;;9.27;3.28;;;;;;;14.33;31.54;99120.06;5057943;28;20047;-77
2022/05/01 11:30:31;;;;;;;7.18;3.78;;;;;;;13.70;32.73;99128.06;5074638;28;20078;-78
2022/05/01 11:33:10;;;;;;;12.18;4.13;;;;;;;13.55;33.27;99121.47;5075202;28;20134;-77
2022/05/01 11:35:54;;;;;;;8.35;4.00;;;;;;;13.47;33.32;99130.28;5062301;28;20047;-78
2022/05/01 11:38:40;;;;;;;11.07;4.20;;;;;;;13.35;34.10;99118.00;5097123;28;20040;-77
2022/05/01 11:41:07;;;;;;;12.73;4.10;;;;;;;13.51;34.33;99122.78;5045633;28;20102;-77
2022/05/01 11:43:34;;;;;;;7.40;4.20;;;;;;;13.66;33.70;99123.97;5073414;28;20052;-77
2022/05/01 11:46:02;;;;;;;6.78;3.90;;;;;;;13.42;35.10;99139.75;5095318;28;20032;-76
2022/05/01 11:48:31;;;;;;;5.05;3.72;;;;;;;13.22;35.67;99137.06;5062305;28;20054;-79
2022/05/01 11:51:01;;;;;;;5.35;3.78;;;;;;;13.53;35.95;99136.88;5062275;28;20410;-77
2022/05/01 11:53:30;;;;;;;7.05;3.30;;;;;;;13.60;35.26;99141.53;5059690;28;20039;-78
2022/05/01 12:04:27;;;;;;;7.55;4.72;;;;;;;12.54;38.55;99155.06;5098380;28;20151;-79
2022/05/01 12:06:58;;;;;;;8.52;4.78;;;;;;;12.21;39.80;99157.13;5081281;28;20079;-79
2022/05/01 12:09:28;;;;;;;12.50;4.30;;;;;;;12.51;39.86;99149.97;5081946;28;20120;-78
2022/05/01 12:11:54;;;;;;;10.13;5.03;;;;;;;13.24;38.76;99142.31;5081271;28;20099;-78